sensor_id;sensor_type;location;lat;lon;timestamp;temperature;humidity
6988;DHT22;3534;49.960;8.018;2022-09-16T00:00:28;17.50;99.90
6988;DHT22;3534;49.960;8.018;2022-09-16T00:02:55;17.40;99.90
6988;DHT22;3534;49.960;8.018;2022-09-16T00:05:22;17.30;99.90
6988;DHT22;3534;49.960;8.018;2022-09-16T00:07:49;17.30;99.90
6988;DHT22;3534;49.960;8.018;2022-09-16T00:10:16;17.30;99.90
6988;DHT22;3534;49.960;8.018;2022-09-16T00:12:43;17.40;99.90
6988;DHT22;3534;49.960;8.018;2022-09-16T00:15:10;17.40;99.90
6988;DHT22;3534;49.960;8.018;2022-09-16T00:17:38;17.50;99.90
6988;DHT22;3534;49.960;8.018;2022-09-16T00:20:06;17.50;99.90
6988;DHT22;3534;49.960;8.018;2022-09-16T00:22:33;17.50;99.90
6988;DHT22;3534;49.960;8.018;2022-09-16T00:25:00;17.30;99.90
6988;DHT22;3534;49.960;8.018;2022-09-16T00:27:27;17.30;99.90
6988;DHT22;3534;49.960;8.018;2022-09-16T00:29:53;17.30;99.90
6988;DHT22;3534;49.960;8.018;2022-09-16T00:32:20;17.30;99.90
6988;DHT22;3534;49.960;8.018;2022-09-16T00:34:49;17.30;99.90
6988;DHT22;3534;49.960;8.018;2022-09-16T00:37:16;17.30;99.90
6988;DHT22;3534;49.960;8.018;2022-09-16T00:39:43;17.30;99.90
6988;DHT22;3534;49.960;8.018;2022-09-16T00:42:10;17.30;99.90
6988;DHT22;3534;49.960;8.018;2022-09-16T00:44:58;17.20;99.90
6988;DHT22;3534;49.960;8.018;2022-09-16T00:47:30;17.10;99.90
6988;DHT22;3534;49.960;8.018;2022-09-16T00:50:06;17.10;99.90
6988;DHT22;3534;49.960;8.018;2022-09-16T00:52:34;17.10;99.90
6988;DHT22;3534;49.960;8.018;2022-09-16T00:55:03;17.20;99.90
6988;DHT22;3534;49.960;8.018;2022-09-16T00:57:33;17.20;99.90
6988;DHT22;3534;49.960;8.018;2022-09-16T01:00:03;17.10;99.90
6988;DHT22;3534;49.960;8.018;2022-09-16T01:02:30;17.00;99.90
6988;DHT22;3534;49.960;8.018;2022-09-16T01:05:02;17.00;99.90
6988;DHT22;3534;49.960;8.018;2022-09-16T01:07:33;17.00;99.90
6988;DHT22;3534;49.960;8.018;2022-09-16T01:10:00;17.00;99.90
6988;DHT22;3534;49.960;8.018;2022-09-16T01:12:28;17.00;99.90
6988;DHT22;3534;49.960;8.018;2022-09-16T01:14:57;17.00;99.90
6988;DHT22;3534;49.960;8.018;2022-09-16T01:17:37;16.90;99.90
6988;DHT22;3534;49.960;8.018;2022-09-16T01:20:39;16.90;99.90
6988;DHT22;3534;49.960;8.018;2022-09-16T01:23:35;16.90;99.90
6988;DHT22;3534;49.960;8.018;2022-09-16T01:26:23;16.90;99.90
6988;DHT22;3534;49.960;8.018;2022-09-16T01:29:11;16.90;99.90
6988;DHT22;3534;49.960;8.018;2022-09-16T01:31:53;16.80;99.90
6988;DHT22;3534;49.960;8.018;2022-09-16T01:34:29;16.90;99.90
6988;DHT22;3534;49.960;8.018;2022-09-16T01:37:02;16.90;99.90
6988;DHT22;3534;49.960;8.018;2022-09-16T01:39:41;17.00;99.90
6988;DHT22;3534;49.960;8.018;2022-09-16T01:42:19;17.00;99.90
6988;DHT22;3534;49.960;8.018;2022-09-16T01:44:54;17.10;99.90
6988;DHT22;3534;49.960;8.018;2022-09-16T01:47:32;17.10;99.90
6988;DHT22;3534;49.960;8.018;2022-09-16T01:50:04;17.10;99.90
6988;DHT22;3534;49.960;8.018;2022-09-16T01:52:38;17.10;99.90
6988;DHT22;3534;49.960;8.018;2022-09-16T01:55:09;17.10;99.90
6988;DHT22;3534;49.960;8.018;2022-09-16T01:57:43;17.00;99.90
6988;DHT22;3534;49.960;8.018;2022-09-16T02:00:13;16.90;99.90
6988;DHT22;3534;49.960;8.018;2022-09-16T02:02:45;16.90;99.90
6988;DHT22;3534;49.960;8.018;2022-09-16T02:05:16;16.80;99.90
6988;DHT22;3534;49.960;8.018;2022-09-16T02:07:47;16.70;99.90
6988;DHT22;3534;49.960;8.018;2022-09-16T02:10:21;16.80;99.90
6988;DHT22;3534;49.960;8.018;2022-09-16T02:12:49;16.90;99.90
6988;DHT22;3534;49.960;8.018;2022-09-16T02:15:19;16.90;99.90
6988;DHT22;3534;49.960;8.018;2022-09-16T02:17:54;17.00;99.90
6988;DHT22;3534;49.960;8.018;2022-09-16T02:20:25;17.00;99.90
6988;DHT22;3534;49.960;8.018;2022-09-16T02:22:56;17.00;99.90
6988;DHT22;3534;49.960;8.018;2022-09-16T02:25:24;16.90;99.90
6988;DHT22;3534;49.960;8.018;2022-09-16T02:27:52;16.90;99.90
6988;DHT22;3534;49.960;8.018;2022-09-16T02:30:21;16.90;99.90
6988;DHT22;3534;49.960;8.018;2022-09-16T02:32:54;16.90;99.90
6988;DHT22;3534;49.960;8.018;2022-09-16T02:35:24;16.90;99.90
6988;DHT22;3534;49.960;8.018;2022-09-16T02:37:56;17.00;99.90
6988;DHT22;3534;49.960;8.018;2022-09-16T02:40:26;17.00;99.90
6988;DHT22;3534;49.960;8.018;2022-09-16T02:42:56;17.00;99.90
6988;DHT22;3534;49.960;8.018;2022-09-16T02:45:25;17.10;99.90
6988;DHT22;3534;49.960;8.018;2022-09-16T02:48:00;17.10;99.90
6988;DHT22;3534;49.960;8.018;2022-09-16T02:50:34;17.10;99.90
6988;DHT22;3534;49.960;8.018;2022-09-16T02:53:11;17.10;99.90
6988;DHT22;3534;49.960;8.018;2022-09-16T02:55:44;17.10;99.90
6988;DHT22;3534;49.960;8.018;2022-09-16T02:58:14;17.10;99.90
6988;DHT22;3534;49.960;8.018;2022-09-16T03:00:44;17.10;99.90
6988;DHT22;3534;49.960;8.018;2022-09-16T03:03:13;17.00;99.90
6988;DHT22;3534;49.960;8.018;2022-09-16T03:06:13;17.00;99.90
6988;DHT22;3534;49.960;8.018;2022-09-16T03:08:41;17.00;99.90
6988;DHT22;3534;49.960;8.018;2022-09-16T03:11:22;17.00;99.90
6988;DHT22;3534;49.960;8.018;2022-09-16T03:13:55;17.00;99.90
6988;DHT22;3534;49.960;8.018;2022-09-16T03:16:31;16.90;99.90
6988;DHT22;3534;49.960;8.018;2022-09-16T03:19:08;16.90;99.90
6988;DHT22;3534;49.960;8.018;2022-09-16T03:21:46;16.90;99.90
6988;DHT22;3534;49.960;8.018;2022-09-16T03:24:24;16.90;99.90
6988;DHT22;3534;49.960;8.018;2022-09-16T03:26:59;16.90;99.90
6988;DHT22;3534;49.960;8.018;2022-09-16T03:29:33;16.90;99.90
6988;DHT22;3534;49.960;8.018;2022-09-16T03:32:06;16.90;99.90
6988;DHT22;3534;49.960;8.018;2022-09-16T03:34:38;16.90;99.90
6988;DHT22;3534;49.960;8.018;2022-09-16T03:37:08;16.90;99.90
6988;DHT22;3534;49.960;8.018;2022-09-16T03:39:37;16.90;99.90
6988;DHT22;3534;49.960;8.018;2022-09-16T03:42:07;16.80;99.90
6988;DHT22;3534;49.960;8.018;2022-09-16T03:44:37;16.80;99.90
6988;DHT22;3534;49.960;8.018;2022-09-16T03:47:05;16.80;99.90
6988;DHT22;3534;49.960;8.018;2022-09-16T03:49:32;16.80;99.90
6988;DHT22;3534;49.960;8.018;2022-09-16T03:52:01;16.80;99.90
6988;DHT22;3534;49.960;8.018;2022-09-16T03:54:29;16.80;99.90
6988;DHT22;3534;49.960;8.018;2022-09-16T03:56:56;16.80;99.90
6988;DHT22;3534;49.960;8.018;2022-09-16T03:59:24;16.80;99.90
6988;DHT22;3534;49.960;8.018;2022-09-16T04:01:51;16.80;99.90
6988;DHT22;3534;49.960;8.018;2022-09-16T04:04:18;16.80;99.90
6988;DHT22;3534;49.960;8.018;2022-09-16T04:06:45;16.70;99.90
6988;DHT22;3534;49.960;8.018;2022-09-16T04:09:13;16.70;99.90
6988;DHT22;3534;49.960;8.018;2022-09-16T04:11:41;16.70;99.90
6988;DHT22;3534;49.960;8.018;2022-09-16T04:14:08;16.70;99.90
6988;DHT22;3534;49.960;8.018;2022-09-16T04:16:35;16.70;99.90
6988;DHT22;3534;49.960;8.018;2022-09-16T04:19:02;16.70;99.90
6988;DHT22;3534;49.960;8.018;2022-09-16T04:21:29;16.70;99.90
6988;DHT22;3534;49.960;8.018;2022-09-16T04:23:55;16.70;99.90
6988;DHT22;3534;49.960;8.018;2022-09-16T04:26:23;16.70;99.90
6988;DHT22;3534;49.960;8.018;2022-09-16T04:28:51;16.70;99.90
6988;DHT22;3534;49.960;8.018;2022-09-16T04:31:19;16.60;99.90
6988;DHT22;3534;49.960;8.018;2022-09-16T04:33:46;16.60;99.90
6988;DHT22;3534;49.960;8.018;2022-09-16T04:36:14;16.50;99.90
6988;DHT22;3534;49.960;8.018;2022-09-16T04:38:43;16.50;99.90
6988;DHT22;3534;49.960;8.018;2022-09-16T04:41:12;16.50;99.90
6988;DHT22;3534;49.960;8.018;2022-09-16T04:43:40;16.50;99.90
6988;DHT22;3534;49.960;8.018;2022-09-16T04:46:07;16.50;99.90
6988;DHT22;3534;49.960;8.018;2022-09-16T04:48:34;16.40;99.90
6988;DHT22;3534;49.960;8.018;2022-09-16T04:51:02;16.40;99.90
6988;DHT22;3534;49.960;8.018;2022-09-16T04:53:30;16.40;99.90
6988;DHT22;3534;49.960;8.018;2022-09-16T04:56:03;16.40;99.90
6988;DHT22;3534;49.960;8.018;2022-09-16T04:58:30;16.40;99.90
6988;DHT22;3534;49.960;8.018;2022-09-16T05:01:04;16.40;99.90
6988;DHT22;3534;49.960;8.018;2022-09-16T05:03:31;16.40;99.90
6988;DHT22;3534;49.960;8.018;2022-09-16T05:06:04;16.50;99.90
6988;DHT22;3534;49.960;8.018;2022-09-16T05:08:31;16.50;99.90
6988;DHT22;3534;49.960;8.018;2022-09-16T05:11:03;16.50;99.90
6988;DHT22;3534;49.960;8.018;2022-09-16T05:13:30;16.40;99.90
6988;DHT22;3534;49.960;8.018;2022-09-16T05:16:01;16.40;99.90
6988;DHT22;3534;49.960;8.018;2022-09-16T05:18:29;16.50;99.90
6988;DHT22;3534;49.960;8.018;2022-09-16T05:20:57;16.40;99.90
6988;DHT22;3534;49.960;8.018;2022-09-16T05:23:24;16.50;99.90
6988;DHT22;3534;49.960;8.018;2022-09-16T05:25:51;16.40;99.90
6988;DHT22;3534;49.960;8.018;2022-09-16T05:28:18;16.50;99.90
6988;DHT22;3534;49.960;8.018;2022-09-16T05:30:44;16.50;99.90
6988;DHT22;3534;49.960;8.018;2022-09-16T05:33:11;16.40;99.90
6988;DHT22;3534;49.960;8.018;2022-09-16T05:35:39;16.40;99.90
6988;DHT22;3534;49.960;8.018;2022-09-16T05:38:07;16.40;99.90
6988;DHT22;3534;49.960;8.018;2022-09-16T05:40:34;16.40;99.90
6988;DHT22;3534;49.960;8.018;2022-09-16T05:43:01;16.40;99.90
6988;DHT22;3534;49.960;8.018;2022-09-16T05:45:28;16.30;99.90
6988;DHT22;3534;49.960;8.018;2022-09-16T05:47:54;16.30;99.90
6988;DHT22;3534;49.960;8.018;2022-09-16T05:50:21;16.30;99.90
6988;DHT22;3534;49.960;8.018;2022-09-16T05:52:49;16.30;99.90
6988;DHT22;3534;49.960;8.018;2022-09-16T05:55:16;16.30;99.90
6988;DHT22;3534;49.960;8.018;2022-09-16T05:57:42;16.30;99.90
6988;DHT22;3534;49.960;8.018;2022-09-16T06:00:10;16.30;99.90
6988;DHT22;3534;49.960;8.018;2022-09-16T06:02:37;16.30;99.90
6988;DHT22;3534;49.960;8.018;2022-09-16T06:05:04;16.30;99.90
6988;DHT22;3534;49.960;8.018;2022-09-16T06:07:31;16.30;99.90
6988;DHT22;3534;49.960;8.018;2022-09-16T06:09:59;16.30;99.90
6988;DHT22;3534;49.960;8.018;2022-09-16T06:12:25;16.30;99.90
6988;DHT22;3534;49.960;8.018;2022-09-16T06:14:52;16.40;99.90
6988;DHT22;3534;49.960;8.018;2022-09-16T06:17:19;16.40;99.90
6988;DHT22;3534;49.960;8.018;2022-09-16T06:19:45;16.40;99.90
6988;DHT22;3534;49.960;8.018;2022-09-16T06:22:12;16.40;99.90
6988;DHT22;3534;49.960;8.018;2022-09-16T06:24:39;16.40;99.90
6988;DHT22;3534;49.960;8.018;2022-09-16T06:27:07;16.40;99.90
6988;DHT22;3534;49.960;8.018;2022-09-16T06:29:33;16.40;99.90
6988;DHT22;3534;49.960;8.018;2022-09-16T06:32:00;16.40;99.90
6988;DHT22;3534;49.960;8.018;2022-09-16T06:34:27;16.40;99.90
6988;DHT22;3534;49.960;8.018;2022-09-16T06:36:55;16.40;99.90
6988;DHT22;3534;49.960;8.018;2022-09-16T06:39:22;16.40;99.90
6988;DHT22;3534;49.960;8.018;2022-09-16T06:41:48;16.40;99.90
6988;DHT22;3534;49.960;8.018;2022-09-16T06:44:17;16.40;99.90
6988;DHT22;3534;49.960;8.018;2022-09-16T06:46:44;16.40;99.90
6988;DHT22;3534;49.960;8.018;2022-09-16T06:49:10;16.40;99.90
6988;DHT22;3534;49.960;8.018;2022-09-16T06:51:37;16.40;99.90
6988;DHT22;3534;49.960;8.018;2022-09-16T06:54:06;16.40;99.90
6988;DHT22;3534;49.960;8.018;2022-09-16T06:56:33;16.40;99.90
6988;DHT22;3534;49.960;8.018;2022-09-16T06:59:00;16.40;99.90
6988;DHT22;3534;49.960;8.018;2022-09-16T07:01:29;16.40;99.90
6988;DHT22;3534;49.960;8.018;2022-09-16T07:03:57;16.30;99.90
6988;DHT22;3534;49.960;8.018;2022-09-16T07:06:27;16.20;99.90
6988;DHT22;3534;49.960;8.018;2022-09-16T07:08:54;16.30;99.90
6988;DHT22;3534;49.960;8.018;2022-09-16T07:11:22;16.30;99.90
6988;DHT22;3534;49.960;8.018;2022-09-16T07:13:50;16.40;99.90
6988;DHT22;3534;49.960;8.018;2022-09-16T07:16:18;16.50;99.90
6988;DHT22;3534;49.960;8.018;2022-09-16T07:18:47;16.50;99.90
6988;DHT22;3534;49.960;8.018;2022-09-16T07:21:18;16.50;99.90
6988;DHT22;3534;49.960;8.018;2022-09-16T07:23:46;16.50;99.90
6988;DHT22;3534;49.960;8.018;2022-09-16T07:26:15;16.40;99.90
6988;DHT22;3534;49.960;8.018;2022-09-16T07:28:43;16.40;99.90
6988;DHT22;3534;49.960;8.018;2022-09-16T07:31:12;16.30;99.90
6988;DHT22;3534;49.960;8.018;2022-09-16T07:33:41;16.30;99.90
6988;DHT22;3534;49.960;8.018;2022-09-16T07:36:11;16.20;99.90
6988;DHT22;3534;49.960;8.018;2022-09-16T07:38:39;16.10;99.90
6988;DHT22;3534;49.960;8.018;2022-09-16T07:41:07;16.30;99.90
6988;DHT22;3534;49.960;8.018;2022-09-16T07:43:34;16.30;99.90
6988;DHT22;3534;49.960;8.018;2022-09-16T07:46:00;16.40;99.90
6988;DHT22;3534;49.960;8.018;2022-09-16T07:48:28;16.40;99.90
6988;DHT22;3534;49.960;8.018;2022-09-16T07:50:55;16.50;99.90
6988;DHT22;3534;49.960;8.018;2022-09-16T07:53:25;16.40;99.90
6988;DHT22;3534;49.960;8.018;2022-09-16T07:55:53;16.50;99.90
6988;DHT22;3534;49.960;8.018;2022-09-16T07:58:20;16.50;99.90
6988;DHT22;3534;49.960;8.018;2022-09-16T08:00:48;16.50;99.90
6988;DHT22;3534;49.960;8.018;2022-09-16T08:03:15;16.50;99.90
6988;DHT22;3534;49.960;8.018;2022-09-16T08:05:42;16.70;99.90
6988;DHT22;3534;49.960;8.018;2022-09-16T08:08:08;16.70;99.90
6988;DHT22;3534;49.960;8.018;2022-09-16T08:10:37;16.70;99.90
6988;DHT22;3534;49.960;8.018;2022-09-16T08:13:04;16.60;99.90
6988;DHT22;3534;49.960;8.018;2022-09-16T08:15:31;16.50;99.90
6988;DHT22;3534;49.960;8.018;2022-09-16T08:17:57;16.40;99.90
6988;DHT22;3534;49.960;8.018;2022-09-16T08:20:25;16.40;99.90
6988;DHT22;3534;49.960;8.018;2022-09-16T08:22:52;16.40;99.90
6988;DHT22;3534;49.960;8.018;2022-09-16T08:25:19;16.40;99.90
6988;DHT22;3534;49.960;8.018;2022-09-16T08:27:47;16.40;99.90
6988;DHT22;3534;49.960;8.018;2022-09-16T08:30:14;16.60;99.90
6988;DHT22;3534;49.960;8.018;2022-09-16T08:32:41;16.70;99.90
6988;DHT22;3534;49.960;8.018;2022-09-16T08:35:07;16.80;99.90
6988;DHT22;3534;49.960;8.018;2022-09-16T08:37:34;17.00;99.90
6988;DHT22;3534;49.960;8.018;2022-09-16T08:40:01;17.00;99.90
6988;DHT22;3534;49.960;8.018;2022-09-16T08:42:35;16.90;99.90
6988;DHT22;3534;49.960;8.018;2022-09-16T08:45:16;16.90;99.90
6988;DHT22;3534;49.960;8.018;2022-09-16T08:47:57;16.80;99.90
6988;DHT22;3534;49.960;8.018;2022-09-16T08:50:29;16.90;99.90
6988;DHT22;3534;49.960;8.018;2022-09-16T08:52:59;16.90;99.90
6988;DHT22;3534;49.960;8.018;2022-09-16T08:55:31;16.90;99.90
6988;DHT22;3534;49.960;8.018;2022-09-16T08:58:02;17.00;99.90
6988;DHT22;3534;49.960;8.018;2022-09-16T09:00:32;17.00;99.90
6988;DHT22;3534;49.960;8.018;2022-09-16T09:03:09;17.00;99.90
6988;DHT22;3534;49.960;8.018;2022-09-16T09:05:46;17.10;99.90
6988;DHT22;3534;49.960;8.018;2022-09-16T09:08:28;17.10;99.90
6988;DHT22;3534;49.960;8.018;2022-09-16T09:11:02;17.00;99.90
6988;DHT22;3534;49.960;8.018;2022-09-16T09:13:41;17.00;99.90
6988;DHT22;3534;49.960;8.018;2022-09-16T09:16:19;16.90;99.90
6988;DHT22;3534;49.960;8.018;2022-09-16T09:18:55;16.90;99.90
6988;DHT22;3534;49.960;8.018;2022-09-16T09:21:29;17.00;99.90
6988;DHT22;3534;49.960;8.018;2022-09-16T09:24:23;16.90;99.90
6988;DHT22;3534;49.960;8.018;2022-09-16T09:26:58;16.90;99.90
6988;DHT22;3534;49.960;8.018;2022-09-16T09:29:44;17.00;99.90
6988;DHT22;3534;49.960;8.018;2022-09-16T09:32:23;17.00;99.90
6988;DHT22;3534;49.960;8.018;2022-09-16T09:34:59;17.10;99.90
6988;DHT22;3534;49.960;8.018;2022-09-16T09:37:46;17.20;99.90
6988;DHT22;3534;49.960;8.018;2022-09-16T09:40:18;17.20;99.90
6988;DHT22;3534;49.960;8.018;2022-09-16T09:42:49;17.20;99.90
6988;DHT22;3534;49.960;8.018;2022-09-16T09:45:19;17.20;99.90
6988;DHT22;3534;49.960;8.018;2022-09-16T09:47:53;17.20;99.90
6988;DHT22;3534;49.960;8.018;2022-09-16T09:50:24;17.30;99.90
6988;DHT22;3534;49.960;8.018;2022-09-16T09:52:57;17.40;99.90
6988;DHT22;3534;49.960;8.018;2022-09-16T09:55:31;17.40;99.90
6988;DHT22;3534;49.960;8.018;2022-09-16T09:58:04;17.40;99.90
6988;DHT22;3534;49.960;8.018;2022-09-16T10:00:34;17.40;99.90
6988;DHT22;3534;49.960;8.018;2022-09-16T10:03:04;17.40;99.90
6988;DHT22;3534;49.960;8.018;2022-09-16T10:05:32;17.40;99.90
6988;DHT22;3534;49.960;8.018;2022-09-16T10:08:03;17.30;99.90
6988;DHT22;3534;49.960;8.018;2022-09-16T10:10:32;17.30;99.90
6988;DHT22;3534;49.960;8.018;2022-09-16T10:13:07;17.20;99.90
6988;DHT22;3534;49.960;8.018;2022-09-16T10:15:34;17.10;99.90
6988;DHT22;3534;49.960;8.018;2022-09-16T10:18:10;17.10;99.90
6988;DHT22;3534;49.960;8.018;2022-09-16T10:20:40;17.20;99.90
6988;DHT22;3534;49.960;8.018;2022-09-16T10:23:11;17.20;99.90
6988;DHT22;3534;49.960;8.018;2022-09-16T10:25:38;17.30;99.90
6988;DHT22;3534;49.960;8.018;2022-09-16T10:28:19;17.30;99.90
6988;DHT22;3534;49.960;8.018;2022-09-16T10:30:48;17.40;99.90
6988;DHT22;3534;49.960;8.018;2022-09-16T10:33:22;17.60;99.90
6988;DHT22;3534;49.960;8.018;2022-09-16T10:35:54;17.50;99.90
6988;DHT22;3534;49.960;8.018;2022-09-16T10:38:24;17.60;99.90
6988;DHT22;3534;49.960;8.018;2022-09-16T10:40:52;17.50;99.90
6988;DHT22;3534;49.960;8.018;2022-09-16T10:43:20;17.50;99.90
6988;DHT22;3534;49.960;8.018;2022-09-16T10:45:50;17.60;99.90
6988;DHT22;3534;49.960;8.018;2022-09-16T10:48:20;17.70;99.90
6988;DHT22;3534;49.960;8.018;2022-09-16T10:50:52;17.70;99.90
6988;DHT22;3534;49.960;8.018;2022-09-16T10:53:21;17.70;99.90
6988;DHT22;3534;49.960;8.018;2022-09-16T10:55:56;17.70;99.90
6988;DHT22;3534;49.960;8.018;2022-09-16T10:58:23;17.70;99.90
6988;DHT22;3534;49.960;8.018;2022-09-16T11:00:59;17.80;99.90
6988;DHT22;3534;49.960;8.018;2022-09-16T11:03:57;17.90;99.90
6988;DHT22;3534;49.960;8.018;2022-09-16T11:06:38;17.80;99.90
6988;DHT22;3534;49.960;8.018;2022-09-16T11:09:13;17.70;99.90
6988;DHT22;3534;49.960;8.018;2022-09-16T11:11:52;17.80;99.90
6988;DHT22;3534;49.960;8.018;2022-09-16T11:14:30;17.80;99.90
6988;DHT22;3534;49.960;8.018;2022-09-16T11:17:16;17.90;99.90
6988;DHT22;3534;49.960;8.018;2022-09-16T11:19:58;17.90;99.90
6988;DHT22;3534;49.960;8.018;2022-09-16T11:22:34;18.00;99.90
6988;DHT22;3534;49.960;8.018;2022-09-16T11:25:22;18.10;99.90
6988;DHT22;3534;49.960;8.018;2022-09-16T11:27:55;18.10;99.90
6988;DHT22;3534;49.960;8.018;2022-09-16T11:30:27;18.20;99.90
6988;DHT22;3534;49.960;8.018;2022-09-16T11:33:05;18.40;99.90
6988;DHT22;3534;49.960;8.018;2022-09-16T11:35:46;18.50;99.90
6988;DHT22;3534;49.960;8.018;2022-09-16T11:38:26;18.60;99.90
6988;DHT22;3534;49.960;8.018;2022-09-16T11:41:07;18.60;99.90
6988;DHT22;3534;49.960;8.018;2022-09-16T11:43:56;18.50;99.90
6988;DHT22;3534;49.960;8.018;2022-09-16T11:46:31;18.60;99.90
6988;DHT22;3534;49.960;8.018;2022-09-16T11:49:15;18.60;99.90
6988;DHT22;3534;49.960;8.018;2022-09-16T11:51:55;18.50;99.90
6988;DHT22;3534;49.960;8.018;2022-09-16T11:57:30;18.20;99.90
6988;DHT22;3534;49.960;8.018;2022-09-16T12:00:00;18.20;99.90
6988;DHT22;3534;49.960;8.018;2022-09-16T12:02:33;18.20;99.90
6988;DHT22;3534;49.960;8.018;2022-09-16T12:05:10;18.30;99.90
6988;DHT22;3534;49.960;8.018;2022-09-16T12:07:44;18.40;99.90
6988;DHT22;3534;49.960;8.018;2022-09-16T12:10:16;18.60;99.90
6988;DHT22;3534;49.960;8.018;2022-09-16T12:12:48;18.90;99.90
6988;DHT22;3534;49.960;8.018;2022-09-16T12:15:19;19.40;99.90
6988;DHT22;3534;49.960;8.018;2022-09-16T12:17:53;19.80;99.90
6988;DHT22;3534;49.960;8.018;2022-09-16T12:20:23;20.20;99.90
6988;DHT22;3534;49.960;8.018;2022-09-16T12:22:59;20.50;99.90
6988;DHT22;3534;49.960;8.018;2022-09-16T12:25:30;20.70;99.90
6988;DHT22;3534;49.960;8.018;2022-09-16T12:28:01;20.70;99.90
6988;DHT22;3534;49.960;8.018;2022-09-16T12:30:33;20.60;99.90
6988;DHT22;3534;49.960;8.018;2022-09-16T12:33:04;20.60;99.90
6988;DHT22;3534;49.960;8.018;2022-09-16T12:35:35;20.40;99.90
6988;DHT22;3534;49.960;8.018;2022-09-16T12:38:14;20.30;99.90
6988;DHT22;3534;49.960;8.018;2022-09-16T12:40:57;20.20;99.90
6988;DHT22;3534;49.960;8.018;2022-09-16T12:46:52;20.00;99.90
6988;DHT22;3534;49.960;8.018;2022-09-16T12:50:01;19.70;99.90
6988;DHT22;3534;49.960;8.018;2022-09-16T12:55:41;19.10;99.90
6988;DHT22;3534;49.960;8.018;2022-09-16T12:58:24;18.80;99.90
6988;DHT22;3534;49.960;8.018;2022-09-16T13:01:00;18.80;99.90
6988;DHT22;3534;49.960;8.018;2022-09-16T13:03:32;19.10;99.90
6988;DHT22;3534;49.960;8.018;2022-09-16T13:06:06;19.50;99.90
6988;DHT22;3534;49.960;8.018;2022-09-16T13:08:39;19.70;99.90
6988;DHT22;3534;49.960;8.018;2022-09-16T13:11:18;19.90;99.90
6988;DHT22;3534;49.960;8.018;2022-09-16T13:13:47;20.10;99.90
6988;DHT22;3534;49.960;8.018;2022-09-16T13:16:27;20.30;99.90
6988;DHT22;3534;49.960;8.018;2022-09-16T13:19:18;20.50;99.90
6988;DHT22;3534;49.960;8.018;2022-09-16T13:21:47;20.70;99.90
6988;DHT22;3534;49.960;8.018;2022-09-16T13:24:28;21.00;99.90
6988;DHT22;3534;49.960;8.018;2022-09-16T13:26:57;21.30;99.90
6988;DHT22;3534;49.960;8.018;2022-09-16T13:29:30;21.60;99.90
6988;DHT22;3534;49.960;8.018;2022-09-16T13:32:04;21.70;99.90
6988;DHT22;3534;49.960;8.018;2022-09-16T13:34:31;21.70;99.90
6988;DHT22;3534;49.960;8.018;2022-09-16T13:36:57;21.50;99.90
6988;DHT22;3534;49.960;8.018;2022-09-16T13:39:28;21.50;99.90
6988;DHT22;3534;49.960;8.018;2022-09-16T13:42:08;21.30;99.90
6988;DHT22;3534;49.960;8.018;2022-09-16T13:44:40;21.10;99.90
6988;DHT22;3534;49.960;8.018;2022-09-16T13:47:16;20.80;99.90
6988;DHT22;3534;49.960;8.018;2022-09-16T13:49:46;20.50;99.90
6988;DHT22;3534;49.960;8.018;2022-09-16T13:52:19;20.10;99.90
6988;DHT22;3534;49.960;8.018;2022-09-16T13:54:48;19.70;99.90
6988;DHT22;3534;49.960;8.018;2022-09-16T14:00:19;18.90;99.90
6988;DHT22;3534;49.960;8.018;2022-09-16T14:02:58;18.50;99.90
6988;DHT22;3534;49.960;8.018;2022-09-16T14:05:49;18.20;99.90
6988;DHT22;3534;49.960;8.018;2022-09-16T14:08:27;18.00;99.90
6988;DHT22;3534;49.960;8.018;2022-09-16T14:11:04;17.90;99.90
6988;DHT22;3534;49.960;8.018;2022-09-16T14:13:37;17.80;99.90
6988;DHT22;3534;49.960;8.018;2022-09-16T14:16:13;17.90;99.90
6988;DHT22;3534;49.960;8.018;2022-09-16T14:18:45;18.10;99.90
6988;DHT22;3534;49.960;8.018;2022-09-16T14:21:17;18.10;99.90
6988;DHT22;3534;49.960;8.018;2022-09-16T14:23:45;17.90;99.90
6988;DHT22;3534;49.960;8.018;2022-09-16T14:26:14;18.30;99.90
6988;DHT22;3534;49.960;8.018;2022-09-16T14:28:43;18.70;99.90
6988;DHT22;3534;49.960;8.018;2022-09-16T14:31:14;18.90;99.90
6988;DHT22;3534;49.960;8.018;2022-09-16T14:33:44;19.00;99.90
6988;DHT22;3534;49.960;8.018;2022-09-16T14:36:17;18.80;99.90
6988;DHT22;3534;49.960;8.018;2022-09-16T14:38:48;18.80;99.90
6988;DHT22;3534;49.960;8.018;2022-09-16T14:41:21;19.20;99.90
6988;DHT22;3534;49.960;8.018;2022-09-16T14:43:51;19.80;99.90
6988;DHT22;3534;49.960;8.018;2022-09-16T14:46:18;20.40;99.90
6988;DHT22;3534;49.960;8.018;2022-09-16T14:48:46;21.10;99.90
6988;DHT22;3534;49.960;8.018;2022-09-16T14:51:20;21.50;99.90
6988;DHT22;3534;49.960;8.018;2022-09-16T14:53:56;21.90;99.90
6988;DHT22;3534;49.960;8.018;2022-09-16T14:56:24;22.30;99.90
6988;DHT22;3534;49.960;8.018;2022-09-16T14:58:53;22.50;99.90
6988;DHT22;3534;49.960;8.018;2022-09-16T15:01:25;22.50;99.90
6988;DHT22;3534;49.960;8.018;2022-09-16T15:03:55;22.10;99.90
6988;DHT22;3534;49.960;8.018;2022-09-16T15:06:25;21.60;99.90
6988;DHT22;3534;49.960;8.018;2022-09-16T15:08:55;20.90;99.90
6988;DHT22;3534;49.960;8.018;2022-09-16T15:11:27;19.90;99.90
6988;DHT22;3534;49.960;8.018;2022-09-16T15:13:56;19.30;99.90
6988;DHT22;3534;49.960;8.018;2022-09-16T15:16:23;19.00;99.90
6988;DHT22;3534;49.960;8.018;2022-09-16T15:18:53;18.60;99.90
6988;DHT22;3534;49.960;8.018;2022-09-16T15:21:24;18.00;99.90
6988;DHT22;3534;49.960;8.018;2022-09-16T15:23:53;17.40;99.90
6988;DHT22;3534;49.960;8.018;2022-09-16T15:26:23;17.10;99.90
6988;DHT22;3534;49.960;8.018;2022-09-16T15:28:57;16.80;99.90
6988;DHT22;3534;49.960;8.018;2022-09-16T15:31:34;16.60;99.90
6988;DHT22;3534;49.960;8.018;2022-09-16T15:34:04;16.60;99.90
6988;DHT22;3534;49.960;8.018;2022-09-16T15:36:37;16.60;99.90
6988;DHT22;3534;49.960;8.018;2022-09-16T15:39:23;16.80;99.90
6988;DHT22;3534;49.960;8.018;2022-09-16T15:42:07;17.10;99.90
6988;DHT22;3534;49.960;8.018;2022-09-16T15:44:37;17.40;99.90
6988;DHT22;3534;49.960;8.018;2022-09-16T15:47:16;17.70;99.90
6988;DHT22;3534;49.960;8.018;2022-09-16T15:49:43;18.10;99.90
6988;DHT22;3534;49.960;8.018;2022-09-16T15:52:11;18.50;99.90
6988;DHT22;3534;49.960;8.018;2022-09-16T15:54:45;18.70;99.90
6988;DHT22;3534;49.960;8.018;2022-09-16T15:57:22;18.60;99.90
6988;DHT22;3534;49.960;8.018;2022-09-16T15:59:59;18.40;99.90
6988;DHT22;3534;49.960;8.018;2022-09-16T16:02:40;18.20;99.90
6988;DHT22;3534;49.960;8.018;2022-09-16T16:05:12;18.30;99.90
6988;DHT22;3534;49.960;8.018;2022-09-16T16:07:42;18.30;99.90
6988;DHT22;3534;49.960;8.018;2022-09-16T16:10:13;18.40;99.90
6988;DHT22;3534;49.960;8.018;2022-09-16T16:12:41;18.50;99.90
6988;DHT22;3534;49.960;8.018;2022-09-16T16:15:12;18.60;99.90
6988;DHT22;3534;49.960;8.018;2022-09-16T16:17:40;18.70;99.90
6988;DHT22;3534;49.960;8.018;2022-09-16T16:20:08;18.70;99.90
6988;DHT22;3534;49.960;8.018;2022-09-16T16:22:36;18.50;99.90
6988;DHT22;3534;49.960;8.018;2022-09-16T16:25:03;18.20;99.90
6988;DHT22;3534;49.960;8.018;2022-09-16T16:27:30;18.10;99.90
6988;DHT22;3534;49.960;8.018;2022-09-16T16:29:57;18.00;99.90
6988;DHT22;3534;49.960;8.018;2022-09-16T16:32:25;18.00;99.90
6988;DHT22;3534;49.960;8.018;2022-09-16T16:34:52;17.90;99.90
6988;DHT22;3534;49.960;8.018;2022-09-16T16:37:22;17.90;99.90
6988;DHT22;3534;49.960;8.018;2022-09-16T16:39:49;17.80;99.90
6988;DHT22;3534;49.960;8.018;2022-09-16T16:42:17;17.90;99.90